sensor_id;sensor_type;location;lat;lon;timestamp;P1;durP1;ratioP1;P2;durP2;ratioP2
56043;SDS011;41912;51.022;3.664;2022-08-04T00:00:27;8.98;;;2.00;;
56043;SDS011;41912;51.022;3.664;2022-08-04T00:05:53;3.95;;;1.70;;
56043;SDS011;41912;51.022;3.664;2022-08-04T00:08:32;5.32;;;1.35;;
56043;SDS011;41912;51.022;3.664;2022-08-04T00:11:05;7.50;;;1.75;;
56043;SDS011;41912;51.022;3.664;2022-08-04T00:13:37;8.98;;;1.95;;
56043;SDS011;41912;51.022;3.664;2022-08-04T00:16:08;8.85;;;1.80;;
56043;SDS011;41912;51.022;3.664;2022-08-04T00:21:21;7.65;;;1.80;;
56043;SDS011;41912;51.022;3.664;2022-08-04T00:23:49;6.57;;;1.98;;
56043;SDS011;41912;51.022;3.664;2022-08-04T00:26:17;4.40;;;1.55;;
56043;SDS011;41912;51.022;3.664;2022-08-04T00:28:44;4.80;;;1.75;;
56043;SDS011;41912;51.022;3.664;2022-08-04T00:31:11;6.65;;;1.63;;
56043;SDS011;41912;51.022;3.664;2022-08-04T00:33:42;6.25;;;1.65;;
56043;SDS011;41912;51.022;3.664;2022-08-04T00:36:10;3.78;;;1.70;;
56043;SDS011;41912;51.022;3.664;2022-08-04T00:38:39;9.13;;;2.05;;
56043;SDS011;41912;51.022;3.664;2022-08-04T00:44:01;3.67;;;1.57;;
56043;SDS011;41912;51.022;3.664;2022-08-04T01:00:09;8.17;;;1.70;;
56043;SDS011;41912;51.022;3.664;2022-08-04T01:02:38;5.78;;;1.90;;
56043;SDS011;41912;51.022;3.664;2022-08-04T01:15:53;6.82;;;2.33;;
56043;SDS011;41912;51.022;3.664;2022-08-04T01:18:50;6.32;;;1.92;;
56043;SDS011;41912;51.022;3.664;2022-08-04T01:29:26;8.75;;;2.70;;
56043;SDS011;41912;51.022;3.664;2022-08-04T01:31:59;12.63;;;2.35;;
56043;SDS011;41912;51.022;3.664;2022-08-04T01:34:35;11.43;;;2.55;;
56043;SDS011;41912;51.022;3.664;2022-08-04T01:40:08;12.27;;;2.25;;
56043;SDS011;41912;51.022;3.664;2022-08-04T01:42:37;28.25;;;4.10;;
56043;SDS011;41912;51.022;3.664;2022-08-04T01:45:06;33.78;;;4.18;;
56043;SDS011;41912;51.022;3.664;2022-08-04T01:47:34;23.52;;;3.08;;
56043;SDS011;41912;51.022;3.664;2022-08-04T01:50:06;15.50;;;2.83;;
56043;SDS011;41912;51.022;3.664;2022-08-04T01:52:34;11.77;;;2.67;;
56043;SDS011;41912;51.022;3.664;2022-08-04T01:55:05;10.00;;;2.65;;
56043;SDS011;41912;51.022;3.664;2022-08-04T01:57:44;14.13;;;3.15;;
56043;SDS011;41912;51.022;3.664;2022-08-04T02:00:11;10.85;;;2.42;;
56043;SDS011;41912;51.022;3.664;2022-08-04T02:02:38;12.55;;;2.70;;
56043;SDS011;41912;51.022;3.664;2022-08-04T02:05:05;9.50;;;2.33;;
56043;SDS011;41912;51.022;3.664;2022-08-04T02:10:06;10.55;;;3.38;;
56043;SDS011;41912;51.022;3.664;2022-08-04T02:20:43;9.63;;;2.53;;
56043;SDS011;41912;51.022;3.664;2022-08-04T02:23:18;8.18;;;2.50;;
56043;SDS011;41912;51.022;3.664;2022-08-04T02:26:02;7.70;;;2.88;;
56043;SDS011;41912;51.022;3.664;2022-08-04T02:31:03;13.07;;;2.90;;
56043;SDS011;41912;51.022;3.664;2022-08-04T02:33:35;5.93;;;2.28;;
56043;SDS011;41912;51.022;3.664;2022-08-04T02:36:02;7.90;;;2.70;;
56043;SDS011;41912;51.022;3.664;2022-08-04T02:41:14;8.48;;;2.13;;
56043;SDS011;41912;51.022;3.664;2022-08-04T02:43:41;4.30;;;2.10;;
56043;SDS011;41912;51.022;3.664;2022-08-04T02:46:10;8.02;;;2.78;;
56043;SDS011;41912;51.022;3.664;2022-08-04T02:48:37;7.63;;;2.33;;
56043;SDS011;41912;51.022;3.664;2022-08-04T02:51:07;8.75;;;2.65;;
56043;SDS011;41912;51.022;3.664;2022-08-04T02:53:36;7.45;;;2.08;;
56043;SDS011;41912;51.022;3.664;2022-08-04T02:56:03;9.15;;;2.90;;
56043;SDS011;41912;51.022;3.664;2022-08-04T02:58:33;7.72;;;2.03;;
56043;SDS011;41912;51.022;3.664;2022-08-04T03:01:00;15.52;;;2.45;;
56043;SDS011;41912;51.022;3.664;2022-08-04T03:05:57;5.95;;;2.72;;
56043;SDS011;41912;51.022;3.664;2022-08-04T03:08:59;6.88;;;2.28;;
56043;SDS011;41912;51.022;3.664;2022-08-04T03:20:32;7.97;;;3.20;;
56043;SDS011;41912;51.022;3.664;2022-08-04T03:26:27;10.82;;;3.05;;
56043;SDS011;41912;51.022;3.664;2022-08-04T03:29:18;12.32;;;3.95;;
56043;SDS011;41912;51.022;3.664;2022-08-04T03:51:45;4.93;;;2.63;;
56043;SDS011;41912;51.022;3.664;2022-08-04T03:57:43;6.50;;;2.53;;
56043;SDS011;41912;51.022;3.664;2022-08-04T04:00:36;6.00;;;2.38;;
56043;SDS011;41912;51.022;3.664;2022-08-04T04:05:57;4.32;;;2.15;;
56043;SDS011;41912;51.022;3.664;2022-08-04T04:22:24;8.00;;;2.88;;
56043;SDS011;41912;51.022;3.664;2022-08-04T04:36:10;6.30;;;2.45;;
56043;SDS011;41912;51.022;3.664;2022-08-04T04:47:17;11.05;;;3.08;;
56043;SDS011;41912;51.022;3.664;2022-08-04T04:50:07;7.07;;;3.13;;
56043;SDS011;41912;51.022;3.664;2022-08-04T04:55:32;7.40;;;3.15;;
56043;SDS011;41912;51.022;3.664;2022-08-04T04:58:06;9.25;;;2.40;;
56043;SDS011;41912;51.022;3.664;2022-08-04T05:01:19;8.85;;;2.58;;
56043;SDS011;41912;51.022;3.664;2022-08-04T05:14:45;18.00;;;8.70;;
56043;SDS011;41912;51.022;3.664;2022-08-04T05:26:06;22.73;;;11.18;;
56043;SDS011;41912;51.022;3.664;2022-08-04T05:28:40;33.75;;;13.70;;
56043;SDS011;41912;51.022;3.664;2022-08-04T05:31:10;35.65;;;13.63;;
56043;SDS011;41912;51.022;3.664;2022-08-04T05:33:42;32.70;;;14.73;;
56043;SDS011;41912;51.022;3.664;2022-08-04T05:36:17;28.25;;;13.55;;
56043;SDS011;41912;51.022;3.664;2022-08-04T05:38:47;32.10;;;14.95;;
56043;SDS011;41912;51.022;3.664;2022-08-04T05:41:15;30.35;;;14.68;;
56043;SDS011;41912;51.022;3.664;2022-08-04T05:43:42;34.88;;;15.05;;
56043;SDS011;41912;51.022;3.664;2022-08-04T05:46:09;32.33;;;14.80;;
56043;SDS011;41912;51.022;3.664;2022-08-04T05:48:36;38.50;;;16.35;;
56043;SDS011;41912;51.022;3.664;2022-08-04T05:51:04;29.33;;;14.73;;
56043;SDS011;41912;51.022;3.664;2022-08-04T05:53:32;34.97;;;15.98;;
56043;SDS011;41912;51.022;3.664;2022-08-04T05:55:59;36.25;;;15.63;;
56043;SDS011;41912;51.022;3.664;2022-08-04T05:58:30;32.83;;;15.63;;
56043;SDS011;41912;51.022;3.664;2022-08-04T06:00:57;32.03;;;15.43;;
56043;SDS011;41912;51.022;3.664;2022-08-04T06:03:26;35.42;;;16.52;;
56043;SDS011;41912;51.022;3.664;2022-08-04T06:05:53;29.58;;;15.82;;
56043;SDS011;41912;51.022;3.664;2022-08-04T06:08:21;30.17;;;15.60;;
56043;SDS011;41912;51.022;3.664;2022-08-04T06:10:48;34.38;;;16.35;;
56043;SDS011;41912;51.022;3.664;2022-08-04T06:13:16;30.63;;;15.52;;
56043;SDS011;41912;51.022;3.664;2022-08-04T06:15:44;32.13;;;16.38;;
56043;SDS011;41912;51.022;3.664;2022-08-04T06:18:12;25.33;;;14.75;;
56043;SDS011;41912;51.022;3.664;2022-08-04T06:20:40;29.67;;;14.90;;
56043;SDS011;41912;51.022;3.664;2022-08-04T06:23:08;23.00;;;13.45;;
56043;SDS011;41912;51.022;3.664;2022-08-04T06:25:45;25.25;;;12.70;;
56043;SDS011;41912;51.022;3.664;2022-08-04T06:28:14;20.98;;;11.77;;
56043;SDS011;41912;51.022;3.664;2022-08-04T06:30:41;19.23;;;10.68;;
56043;SDS011;41912;51.022;3.664;2022-08-04T06:33:12;18.70;;;12.18;;
56043;SDS011;41912;51.022;3.664;2022-08-04T06:35:57;17.33;;;11.32;;
56043;SDS011;41912;51.022;3.664;2022-08-04T06:38:25;17.63;;;11.15;;
56043;SDS011;41912;51.022;3.664;2022-08-04T06:40:53;16.35;;;10.50;;
56043;SDS011;41912;51.022;3.664;2022-08-04T06:43:22;17.00;;;10.13;;
56043;SDS011;41912;51.022;3.664;2022-08-04T06:45:49;15.10;;;10.13;;
56043;SDS011;41912;51.022;3.664;2022-08-04T06:48:16;21.90;;;9.90;;
56043;SDS011;41912;51.022;3.664;2022-08-04T06:50:43;13.18;;;8.90;;
56043;SDS011;41912;51.022;3.664;2022-08-04T06:53:12;21.92;;;9.98;;
56043;SDS011;41912;51.022;3.664;2022-08-04T06:55:39;18.52;;;10.55;;
56043;SDS011;41912;51.022;3.664;2022-08-04T06:58:07;20.55;;;9.10;;
56043;SDS011;41912;51.022;3.664;2022-08-04T07:00:33;13.45;;;9.38;;
56043;SDS011;41912;51.022;3.664;2022-08-04T07:03:02;14.55;;;9.30;;
56043;SDS011;41912;51.022;3.664;2022-08-04T07:05:29;13.70;;;8.98;;
56043;SDS011;41912;51.022;3.664;2022-08-04T07:07:55;13.07;;;9.23;;
56043;SDS011;41912;51.022;3.664;2022-08-04T07:10:21;12.75;;;8.45;;
56043;SDS011;41912;51.022;3.664;2022-08-04T07:12:48;12.60;;;9.32;;
56043;SDS011;41912;51.022;3.664;2022-08-04T07:15:15;14.65;;;9.73;;
56043;SDS011;41912;51.022;3.664;2022-08-04T07:17:42;16.88;;;9.40;;
56043;SDS011;41912;51.022;3.664;2022-08-04T07:20:10;20.15;;;9.38;;
56043;SDS011;41912;51.022;3.664;2022-08-04T07:22:36;16.60;;;9.60;;
56043;SDS011;41912;51.022;3.664;2022-08-04T07:25:07;14.32;;;9.63;;
56043;SDS011;41912;51.022;3.664;2022-08-04T07:27:33;11.70;;;8.55;;
56043;SDS011;41912;51.022;3.664;2022-08-04T07:29:59;16.30;;;8.50;;
56043;SDS011;41912;51.022;3.664;2022-08-04T07:32:26;11.52;;;7.88;;
56043;SDS011;41912;51.022;3.664;2022-08-04T07:34:52;15.32;;;8.05;;
56043;SDS011;41912;51.022;3.664;2022-08-04T07:37:18;12.80;;;8.25;;
56043;SDS011;41912;51.022;3.664;2022-08-04T07:39:44;11.30;;;7.65;;
56043;SDS011;41912;51.022;3.664;2022-08-04T07:42:09;11.20;;;7.10;;
56043;SDS011;41912;51.022;3.664;2022-08-04T07:44:35;9.70;;;6.88;;
56043;SDS011;41912;51.022;3.664;2022-08-04T07:47:02;11.10;;;6.80;;
56043;SDS011;41912;51.022;3.664;2022-08-04T07:49:30;10.88;;;6.75;;
56043;SDS011;41912;51.022;3.664;2022-08-04T07:51:56;9.73;;;6.05;;
56043;SDS011;41912;51.022;3.664;2022-08-04T07:54:22;9.77;;;5.22;;
56043;SDS011;41912;51.022;3.664;2022-08-04T07:56:48;11.45;;;6.00;;
56043;SDS011;41912;51.022;3.664;2022-08-04T07:59:15;9.43;;;5.43;;
56043;SDS011;41912;51.022;3.664;2022-08-04T08:01:42;10.13;;;5.50;;
56043;SDS011;41912;51.022;3.664;2022-08-04T08:04:09;8.68;;;5.32;;
56043;SDS011;41912;51.022;3.664;2022-08-04T08:06:36;7.93;;;5.65;;
56043;SDS011;41912;51.022;3.664;2022-08-04T08:09:11;12.05;;;5.30;;
56043;SDS011;41912;51.022;3.664;2022-08-04T08:11:41;6.78;;;4.93;;
56043;SDS011;41912;51.022;3.664;2022-08-04T08:14:08;7.60;;;4.93;;
56043;SDS011;41912;51.022;3.664;2022-08-04T08:16:34;9.75;;;5.90;;
56043;SDS011;41912;51.022;3.664;2022-08-04T08:19:00;12.40;;;5.40;;
56043;SDS011;41912;51.022;3.664;2022-08-04T08:21:26;7.85;;;4.40;;
56043;SDS011;41912;51.022;3.664;2022-08-04T08:23:52;11.27;;;4.82;;
56043;SDS011;41912;51.022;3.664;2022-08-04T08:26:18;9.23;;;5.38;;
56043;SDS011;41912;51.022;3.664;2022-08-04T08:28:44;8.20;;;5.68;;
56043;SDS011;41912;51.022;3.664;2022-08-04T08:31:10;12.40;;;5.45;;
56043;SDS011;41912;51.022;3.664;2022-08-04T08:33:36;10.50;;;5.22;;
56043;SDS011;41912;51.022;3.664;2022-08-04T08:36:03;11.63;;;5.93;;
56043;SDS011;41912;51.022;3.664;2022-08-04T08:38:39;10.07;;;6.10;;
56043;SDS011;41912;51.022;3.664;2022-08-04T08:49:45;10.43;;;5.75;;
56043;SDS011;41912;51.022;3.664;2022-08-04T08:58:00;8.63;;;5.68;;
56043;SDS011;41912;51.022;3.664;2022-08-04T09:03:50;11.27;;;5.32;;
56043;SDS011;41912;51.022;3.664;2022-08-04T09:12:05;8.70;;;5.65;;
56043;SDS011;41912;51.022;3.664;2022-08-04T09:17:36;10.18;;;6.28;;
56043;SDS011;41912;51.022;3.664;2022-08-04T09:20:39;12.07;;;6.90;;
56043;SDS011;41912;51.022;3.664;2022-08-04T09:23:13;12.07;;;6.05;;
56043;SDS011;41912;51.022;3.664;2022-08-04T09:31:39;10.13;;;4.00;;
56043;SDS011;41912;51.022;3.664;2022-08-04T09:34:18;7.28;;;4.20;;
56043;SDS011;41912;51.022;3.664;2022-08-04T09:36:52;9.55;;;4.32;;
56043;SDS011;41912;51.022;3.664;2022-08-04T09:39:32;6.32;;;4.47;;
56043;SDS011;41912;51.022;3.664;2022-08-04T09:42:22;8.63;;;5.38;;
56043;SDS011;41912;51.022;3.664;2022-08-04T09:47:46;7.70;;;5.53;;
56043;SDS011;41912;51.022;3.664;2022-08-04T09:53:15;9.30;;;3.72;;
56043;SDS011;41912;51.022;3.664;2022-08-04T09:55:51;6.97;;;3.10;;
56043;SDS011;41912;51.022;3.664;2022-08-04T09:58:32;6.38;;;3.53;;
56043;SDS011;41912;51.022;3.664;2022-08-04T10:01:13;5.35;;;3.40;;
56043;SDS011;41912;51.022;3.664;2022-08-04T10:03:44;7.22;;;3.53;;
56043;SDS011;41912;51.022;3.664;2022-08-04T10:06:38;10.95;;;3.95;;
56043;SDS011;41912;51.022;3.664;2022-08-04T10:12:11;5.57;;;3.00;;
56043;SDS011;41912;51.022;3.664;2022-08-04T10:14:47;7.45;;;3.70;;
56043;SDS011;41912;51.022;3.664;2022-08-04T10:17:33;8.07;;;2.83;;
56043;SDS011;41912;51.022;3.664;2022-08-04T10:32:24;8.95;;;2.70;;
56043;SDS011;41912;51.022;3.664;2022-08-04T10:34:32;3.45;;;2.08;;
56043;SDS011;41912;51.022;3.664;2022-08-04T10:42:46;5.45;;;2.30;;
56043;SDS011;41912;51.022;3.664;2022-08-04T10:45:22;3.63;;;1.73;;
56043;SDS011;41912;51.022;3.664;2022-08-04T10:48:05;3.55;;;2.13;;
56043;SDS011;41912;51.022;3.664;2022-08-04T10:50:52;5.22;;;1.90;;
56043;SDS011;41912;51.022;3.664;2022-08-04T10:53:30;7.35;;;2.20;;
56043;SDS011;41912;51.022;3.664;2022-08-04T10:56:01;6.30;;;1.83;;
56043;SDS011;41912;51.022;3.664;2022-08-04T10:58:53;7.03;;;2.13;;
56043;SDS011;41912;51.022;3.664;2022-08-04T11:01:34;9.55;;;2.17;;
56043;SDS011;41912;51.022;3.664;2022-08-04T11:04:12;4.50;;;2.28;;
56043;SDS011;41912;51.022;3.664;2022-08-04T11:06:40;5.07;;;2.33;;
56043;SDS011;41912;51.022;3.664;2022-08-04T11:09:07;5.97;;;2.55;;
56043;SDS011;41912;51.022;3.664;2022-08-04T11:11:44;5.68;;;1.45;;
56043;SDS011;41912;51.022;3.664;2022-08-04T11:14:22;5.03;;;1.80;;
56043;SDS011;41912;51.022;3.664;2022-08-04T11:19:31;4.75;;;1.85;;
56043;SDS011;41912;51.022;3.664;2022-08-04T11:27:47;10.00;;;1.85;;
56043;SDS011;41912;51.022;3.664;2022-08-04T11:31:14;6.82;;;2.55;;
56043;SDS011;41912;51.022;3.664;2022-08-04T11:33:43;4.93;;;1.58;;
56043;SDS011;41912;51.022;3.664;2022-08-04T11:39:28;6.70;;;1.80;;
56043;SDS011;41912;51.022;3.664;2022-08-04T11:42:19;7.55;;;2.10;;
56043;SDS011;41912;51.022;3.664;2022-08-04T11:48:03;4.15;;;1.73;;
56043;SDS011;41912;51.022;3.664;2022-08-04T11:55:28;7.30;;;2.17;;
56043;SDS011;41912;51.022;3.664;2022-08-04T11:57:56;6.70;;;2.15;;
56043;SDS011;41912;51.022;3.664;2022-08-04T12:00:23;6.38;;;1.58;;
56043;SDS011;41912;51.022;3.664;2022-08-04T12:03:00;4.97;;;1.45;;
56043;SDS011;41912;51.022;3.664;2022-08-04T12:11:20;7.10;;;1.88;;
56043;SDS011;41912;51.022;3.664;2022-08-04T12:14:08;8.07;;;1.92;;
56043;SDS011;41912;51.022;3.664;2022-08-04T12:16:44;6.00;;;2.05;;
56043;SDS011;41912;51.022;3.664;2022-08-04T12:21:53;6.13;;;1.70;;
56043;SDS011;41912;51.022;3.664;2022-08-04T12:24:25;5.13;;;1.60;;
56043;SDS011;41912;51.022;3.664;2022-08-04T12:26:56;5.80;;;1.65;;
56043;SDS011;41912;51.022;3.664;2022-08-04T12:29:29;6.63;;;1.33;;
56043;SDS011;41912;51.022;3.664;2022-08-04T12:32:00;7.13;;;1.80;;
56043;SDS011;41912;51.022;3.664;2022-08-04T12:34:42;4.10;;;1.70;;
56043;SDS011;41912;51.022;3.664;2022-08-04T12:37:32;7.70;;;2.25;;
56043;SDS011;41912;51.022;3.664;2022-08-04T12:40:15;4.60;;;2.13;;
56043;SDS011;41912;51.022;3.664;2022-08-04T12:43:11;8.80;;;2.15;;
56043;SDS011;41912;51.022;3.664;2022-08-04T12:45:51;5.32;;;1.73;;
56043;SDS011;41912;51.022;3.664;2022-08-04T12:48:20;4.05;;;1.50;;
56043;SDS011;41912;51.022;3.664;2022-08-04T12:50:57;4.45;;;1.50;;
56043;SDS011;41912;51.022;3.664;2022-08-04T12:53:33;4.40;;;1.67;;
56043;SDS011;41912;51.022;3.664;2022-08-04T12:56:02;4.00;;;1.40;;
56043;SDS011;41912;51.022;3.664;2022-08-04T12:58:32;5.00;;;2.13;;
56043;SDS011;41912;51.022;3.664;2022-08-04T13:01:04;6.38;;;1.65;;
56043;SDS011;41912;51.022;3.664;2022-08-04T13:03:41;7.65;;;1.83;;
56043;SDS011;41912;51.022;3.664;2022-08-04T13:06:11;6.03;;;1.40;;
56043;SDS011;41912;51.022;3.664;2022-08-04T13:08:40;5.90;;;1.45;;
56043;SDS011;41912;51.022;3.664;2022-08-04T13:11:07;5.05;;;1.27;;
56043;SDS011;41912;51.022;3.664;2022-08-04T13:13:35;8.50;;;1.98;;
56043;SDS011;41912;51.022;3.664;2022-08-04T13:16:03;4.72;;;1.33;;
56043;SDS011;41912;51.022;3.664;2022-08-04T13:18:45;5.30;;;1.58;;
56043;SDS011;41912;51.022;3.664;2022-08-04T13:21:20;6.80;;;1.90;;
56043;SDS011;41912;51.022;3.664;2022-08-04T13:23:51;5.65;;;1.63;;
56043;SDS011;41912;51.022;3.664;2022-08-04T13:26:22;4.00;;;1.45;;
56043;SDS011;41912;51.022;3.664;2022-08-04T13:28:50;6.32;;;1.92;;
56043;SDS011;41912;51.022;3.664;2022-08-04T13:31:21;6.05;;;1.70;;
56043;SDS011;41912;51.022;3.664;2022-08-04T13:33:50;6.00;;;1.77;;
56043;SDS011;41912;51.022;3.664;2022-08-04T13:36:22;6.45;;;1.90;;
56043;SDS011;41912;51.022;3.664;2022-08-04T13:38:50;8.93;;;2.27;;
56043;SDS011;41912;51.022;3.664;2022-08-04T13:41:19;8.85;;;2.40;;
56043;SDS011;41912;51.022;3.664;2022-08-04T13:43:51;6.97;;;2.22;;
56043;SDS011;41912;51.022;3.664;2022-08-04T13:46:25;7.07;;;2.50;;
56043;SDS011;41912;51.022;3.664;2022-08-04T13:48:52;4.65;;;2.10;;
56043;SDS011;41912;51.022;3.664;2022-08-04T13:51:19;8.70;;;3.20;;
56043;SDS011;41912;51.022;3.664;2022-08-04T13:53:58;8.65;;;3.33;;
56043;SDS011;41912;51.022;3.664;2022-08-04T13:56:29;10.45;;;2.80;;
56043;SDS011;41912;51.022;3.664;2022-08-04T13:58:59;9.40;;;2.70;;
56043;SDS011;41912;51.022;3.664;2022-08-04T14:01:27;7.25;;;2.72;;
56043;SDS011;41912;51.022;3.664;2022-08-04T14:06:31;7.93;;;2.20;;
56043;SDS011;41912;51.022;3.664;2022-08-04T14:09:02;5.65;;;2.13;;
56043;SDS011;41912;51.022;3.664;2022-08-04T14:11:39;11.93;;;3.30;;
56043;SDS011;41912;51.022;3.664;2022-08-04T14:25:03;9.18;;;2.00;;
56043;SDS011;41912;51.022;3.664;2022-08-04T14:27:39;9.50;;;1.90;;
56043;SDS011;41912;51.022;3.664;2022-08-04T14:30:05;4.35;;;1.50;;
56043;SDS011;41912;51.022;3.664;2022-08-04T14:32:53;6.38;;;2.08;;
56043;SDS011;41912;51.022;3.664;2022-08-04T14:35:20;5.65;;;1.73;;
56043;SDS011;41912;51.022;3.664;2022-08-04T14:37:56;4.65;;;1.67;;
56043;SDS011;41912;51.022;3.664;2022-08-04T14:40:29;10.63;;;1.55;;
56043;SDS011;41912;51.022;3.664;2022-08-04T14:42:56;6.60;;;2.28;;
56043;SDS011;41912;51.022;3.664;2022-08-04T14:52:21;7.95;;;2.40;;
56043;SDS011;41912;51.022;3.664;2022-08-04T14:54:49;8.55;;;2.58;;
56043;SDS011;41912;51.022;3.664;2022-08-04T14:57:14;6.43;;;2.35;;
56043;SDS011;41912;51.022;3.664;2022-08-04T14:59:43;8.50;;;2.40;;
56043;SDS011;41912;51.022;3.664;2022-08-04T15:02:13;4.78;;;1.77;;
56043;SDS011;41912;51.022;3.664;2022-08-04T15:04:43;9.30;;;2.15;;
56043;SDS011;41912;51.022;3.664;2022-08-04T15:07:10;8.52;;;1.70;;
56043;SDS011;41912;51.022;3.664;2022-08-04T15:09:36;5.63;;;1.88;;
56043;SDS011;41912;51.022;3.664;2022-08-04T15:12:02;9.57;;;2.03;;
56043;SDS011;41912;51.022;3.664;2022-08-04T15:14:28;7.95;;;2.35;;
56043;SDS011;41912;51.022;3.664;2022-08-04T15:16:55;7.43;;;1.90;;
56043;SDS011;41912;51.022;3.664;2022-08-04T15:19:21;7.88;;;2.42;;
56043;SDS011;41912;51.022;3.664;2022-08-04T15:21:48;5.95;;;2.67;;
56043;SDS011;41912;51.022;3.664;2022-08-04T15:24:14;8.45;;;2.25;;
56043;SDS011;41912;51.022;3.664;2022-08-04T15:26:41;7.93;;;2.83;;
56043;SDS011;41912;51.022;3.664;2022-08-04T15:29:13;6.13;;;2.45;;
56043;SDS011;41912;51.022;3.664;2022-08-04T15:31:43;6.65;;;2.17;;
56043;SDS011;41912;51.022;3.664;2022-08-04T15:34:10;5.20;;;2.00;;
56043;SDS011;41912;51.022;3.664;2022-08-04T15:36:37;7.82;;;2.28;;
56043;SDS011;41912;51.022;3.664;2022-08-04T15:41:55;6.07;;;2.17;;
56043;SDS011;41912;51.022;3.664;2022-08-04T15:49:23;4.30;;;1.70;;
56043;SDS011;41912;51.022;3.664;2022-08-04T15:51:59;10.77;;;1.85;;
56043;SDS011;41912;51.022;3.664;2022-08-04T15:54:30;3.97;;;2.05;;
56043;SDS011;41912;51.022;3.664;2022-08-04T15:56:56;8.88;;;1.83;;
56043;SDS011;41912;51.022;3.664;2022-08-04T16:07:51;6.82;;;2.75;;
56043;SDS011;41912;51.022;3.664;2022-08-04T16:10:34;7.50;;;2.92;;
56043;SDS011;41912;51.022;3.664;2022-08-04T16:13:05;6.63;;;2.78;;
56043;SDS011;41912;51.022;3.664;2022-08-04T16:15:38;7.95;;;3.13;;
56043;SDS011;41912;51.022;3.664;2022-08-04T16:18:04;9.30;;;2.47;;
56043;SDS011;41912;51.022;3.664;2022-08-04T16:20:30;12.25;;;2.08;;
56043;SDS011;41912;51.022;3.664;2022-08-04T16:23:00;6.63;;;2.28;;
56043;SDS011;41912;51.022;3.664;2022-08-04T16:25:42;6.38;;;2.00;;
56043;SDS011;41912;51.022;3.664;2022-08-04T16:31:10;6.55;;;2.20;;
56043;SDS011;41912;51.022;3.664;2022-08-04T16:33:37;5.80;;;2.30;;
56043;SDS011;41912;51.022;3.664;2022-08-04T16:36:05;7.85;;;2.13;;
56043;SDS011;41912;51.022;3.664;2022-08-04T16:38:58;8.43;;;1.90;;
56043;SDS011;41912;51.022;3.664;2022-08-04T16:41:39;10.43;;;1.98;;
56043;SDS011;41912;51.022;3.664;2022-08-04T16:46:52;7.20;;;2.25;;
56043;SDS011;41912;51.022;3.664;2022-08-04T16:49:18;4.18;;;1.88;;
56043;SDS011;41912;51.022;3.664;2022-08-04T16:51:45;5.93;;;2.30;;
56043;SDS011;41912;51.022;3.664;2022-08-04T16:54:13;6.45;;;2.70;;
56043;SDS011;41912;51.022;3.664;2022-08-04T16:56:39;13.63;;;2.15;;
56043;SDS011;41912;51.022;3.664;2022-08-04T16:59:06;7.47;;;1.67;;
56043;SDS011;41912;51.022;3.664;2022-08-04T17:01:33;5.90;;;2.08;;
56043;SDS011;41912;51.022;3.664;2022-08-04T17:04:00;12.27;;;2.03;;
56043;SDS011;41912;51.022;3.664;2022-08-04T17:06:33;5.88;;;1.90;;
56043;SDS011;41912;51.022;3.664;2022-08-04T17:09:18;4.90;;;1.73;;
56043;SDS011;41912;51.022;3.664;2022-08-04T17:11:45;5.38;;;1.90;;
56043;SDS011;41912;51.022;3.664;2022-08-04T17:14:11;6.72;;;2.10;;
56043;SDS011;41912;51.022;3.664;2022-08-04T17:16:44;7.40;;;2.40;;
56043;SDS011;41912;51.022;3.664;2022-08-04T17:19:10;8.90;;;2.30;;
56043;SDS011;41912;51.022;3.664;2022-08-04T17:21:36;11.25;;;2.55;;
56043;SDS011;41912;51.022;3.664;2022-08-04T17:24:03;7.45;;;1.80;;
56043;SDS011;41912;51.022;3.664;2022-08-04T17:26:30;4.28;;;1.65;;
56043;SDS011;41912;51.022;3.664;2022-08-04T17:28:57;3.92;;;1.70;;
56043;SDS011;41912;51.022;3.664;2022-08-04T17:31:27;7.30;;;2.58;;
56043;SDS011;41912;51.022;3.664;2022-08-04T17:33:56;11.10;;;2.08;;
56043;SDS011;41912;51.022;3.664;2022-08-04T17:36:25;4.30;;;1.77;;
56043;SDS011;41912;51.022;3.664;2022-08-04T17:38:54;5.10;;;1.50;;
56043;SDS011;41912;51.022;3.664;2022-08-04T17:43:58;8.93;;;1.67;;
56043;SDS011;41912;51.022;3.664;2022-08-04T17:49:38;2.28;;;1.45;;
56043;SDS011;41912;51.022;3.664;2022-08-04T17:51:49;5.32;;;1.60;;
56043;SDS011;41912;51.022;3.664;2022-08-04T17:54:33;7.40;;;1.90;;
56043;SDS011;41912;51.022;3.664;2022-08-04T17:57:18;4.20;;;1.60;;
56043;SDS011;41912;51.022;3.664;2022-08-04T17:59:45;4.25;;;1.55;;
56043;SDS011;41912;51.022;3.664;2022-08-04T18:02:20;4.38;;;1.75;;
56043;SDS011;41912;51.022;3.664;2022-08-04T18:04:50;8.05;;;1.70;;
56043;SDS011;41912;51.022;3.664;2022-08-04T18:09:49;7.72;;;1.95;;
56043;SDS011;41912;51.022;3.664;2022-08-04T18:12:20;5.78;;;1.73;;
56043;SDS011;41912;51.022;3.664;2022-08-04T18:14:49;6.00;;;1.80;;
56043;SDS011;41912;51.022;3.664;2022-08-04T18:20:05;3.33;;;1.60;;
56043;SDS011;41912;51.022;3.664;2022-08-04T18:22:33;5.72;;;1.58;;
56043;SDS011;41912;51.022;3.664;2022-08-04T18:24:59;7.20;;;1.75;;
56043;SDS011;41912;51.022;3.664;2022-08-04T18:27:26;4.60;;;1.90;;
56043;SDS011;41912;51.022;3.664;2022-08-04T18:29:53;5.25;;;1.65;;
56043;SDS011;41912;51.022;3.664;2022-08-04T18:32:20;5.15;;;1.58;;
56043;SDS011;41912;51.022;3.664;2022-08-04T18:34:47;6.57;;;1.50;;
56043;SDS011;41912;51.022;3.664;2022-08-04T18:37:14;4.85;;;1.50;;
56043;SDS011;41912;51.022;3.664;2022-08-04T18:39:39;5.00;;;2.00;;
56043;SDS011;41912;51.022;3.664;2022-08-04T18:42:05;8.63;;;2.00;;
56043;SDS011;41912;51.022;3.664;2022-08-04T18:44:31;6.82;;;2.13;;
56043;SDS011;41912;51.022;3.664;2022-08-04T18:46:57;4.20;;;1.83;;
56043;SDS011;41912;51.022;3.664;2022-08-04T18:49:24;6.55;;;1.50;;
56043;SDS011;41912;51.022;3.664;2022-08-04T18:51:51;5.97;;;1.88;;
56043;SDS011;41912;51.022;3.664;2022-08-04T18:54:17;9.93;;;1.88;;
56043;SDS011;41912;51.022;3.664;2022-08-04T18:56:44;4.22;;;1.50;;
56043;SDS011;41912;51.022;3.664;2022-08-04T18:59:09;3.35;;;1.63;;
56043;SDS011;41912;51.022;3.664;2022-08-04T19:01:35;5.07;;;1.95;;
56043;SDS011;41912;51.022;3.664;2022-08-04T19:04:01;5.75;;;1.60;;
56043;SDS011;41912;51.022;3.664;2022-08-04T19:06:27;10.57;;;2.00;;
56043;SDS011;41912;51.022;3.664;2022-08-04T19:08:53;5.20;;;1.52;;
56043;SDS011;41912;51.022;3.664;2022-08-04T19:11:19;5.38;;;1.80;;
56043;SDS011;41912;51.022;3.664;2022-08-04T19:13:45;3.30;;;1.70;;
56043;SDS011;41912;51.022;3.664;2022-08-04T19:16:11;7.88;;;2.25;;
56043;SDS011;41912;51.022;3.664;2022-08-04T19:18:36;4.82;;;2.53;;
56043;SDS011;41912;51.022;3.664;2022-08-04T19:21:02;8.77;;;2.25;;
56043;SDS011;41912;51.022;3.664;2022-08-04T19:23:29;5.07;;;2.00;;
56043;SDS011;41912;51.022;3.664;2022-08-04T19:25:56;9.02;;;1.95;;
56043;SDS011;41912;51.022;3.664;2022-08-04T19:28:23;9.70;;;1.88;;
56043;SDS011;41912;51.022;3.664;2022-08-04T19:30:48;4.78;;;1.67;;
56043;SDS011;41912;51.022;3.664;2022-08-04T19:33:14;22.33;;;2.15;;
56043;SDS011;41912;51.022;3.664;2022-08-04T19:35:40;12.82;;;2.55;;
56043;SDS011;41912;51.022;3.664;2022-08-04T19:38:08;10.15;;;2.05;;
56043;SDS011;41912;51.022;3.664;2022-08-04T19:40:35;7.93;;;2.35;;
56043;SDS011;41912;51.022;3.664;2022-08-04T19:43:03;17.15;;;3.08;;
56043;SDS011;41912;51.022;3.664;2022-08-04T19:45:29;16.10;;;2.80;;
56043;SDS011;41912;51.022;3.664;2022-08-04T19:47:55;15.43;;;3.53;;
56043;SDS011;41912;51.022;3.664;2022-08-04T19:50:20;11.27;;;2.45;;
56043;SDS011;41912;51.022;3.664;2022-08-04T19:52:46;16.85;;;2.40;;
56043;SDS011;41912;51.022;3.664;2022-08-04T19:55:12;17.38;;;2.50;;
56043;SDS011;41912;51.022;3.664;2022-08-04T19:57:38;9.93;;;2.50;;
56043;SDS011;41912;51.022;3.664;2022-08-04T20:02:41;10.60;;;2.40;;
56043;SDS011;41912;51.022;3.664;2022-08-04T20:05:07;7.07;;;1.80;;